Time;durP1;ratioP1;P1;durP2;ratioP2;P2;SDS_P1;SDS_P2;PMS_P1;PMS_P2;Temp;Humidity;BMP_temperature;BMP_pressure;BME280_temperature;BME280_humidity;BME280_pressure;Samples;Min_cycle;Max_cycle;Signal;HPM_P1;HPM_P2
2022/05/20 00:00:49;;;;;;;19.40;14.75;;;18.80;99.90;;;;;;5051765;28;20116;-67
2022/05/20 00:03:15;;;;;;;20.52;15.48;;;18.90;99.90;;;;;;5051926;28;20397;-68
2022/05/20 00:05:41;;;;;;;20.35;15.00;;;18.90;99.90;;;;;;5051595;28;20386;-67
2022/05/20 00:08:08;;;;;;;20.38;14.73;;;18.80;99.90;;;;;;5051696;28;20064;-67
2022/05/20 00:10:35;;;;;;;17.30;13.30;;;18.80;99.90;;;;;;5051434;28;20033;-68
2022/05/20 00:13:01;;;;;;;17.98;13.40;;;18.80;99.90;;;;;;5051714;28;20567;-67
2022/05/20 00:15:28;;;;;;;22.65;13.48;;;18.80;99.90;;;;;;5051728;28;20021;-67
2022/05/20 00:17:55;;;;;;;21.15;14.10;;;18.80;99.90;;;;;;5051859;28;20021;-67
2022/05/20 00:20:24;;;;;;;20.17;13.23;;;18.70;99.90;;;;;;5050074;28;20057;-68
2022/05/20 00:22:50;;;;;;;19.00;12.95;;;18.70;99.90;;;;;;5051498;28;20111;-67
2022/05/20 00:28:07;;;;;;;24.35;15.70;;;18.70;99.90;;;;;;5048612;28;20563;-64
2022/05/20 00:30:33;;;;;;;23.45;14.63;;;18.60;99.90;;;;;;5051432;28;20117;-64
2022/05/20 00:33:00;;;;;;;21.40;14.38;;;18.60;99.90;;;;;;5051430;28;20029;-64
2022/05/20 00:35:26;;;;;;;20.67;14.68;;;18.60;99.90;;;;;;5050644;28;20029;-63
2022/05/20 00:37:52;;;;;;;21.15;14.52;;;18.60;99.90;;;;;;5051266;28;20029;-64
2022/05/20 00:40:22;;;;;;;22.58;14.93;;;18.50;99.90;;;;;;5051281;28;20033;-63
2022/05/20 00:42:49;;;;;;;20.17;14.13;;;18.50;99.90;;;;;;5051323;28;20036;-64
2022/05/20 00:45:16;;;;;;;30.23;19.00;;;18.50;99.90;;;;;;5051310;28;20052;-64
2022/05/20 00:47:42;;;;;;;28.30;18.58;;;18.50;99.90;;;;;;5051056;28;20108;-64
2022/05/20 00:50:13;;;;;;;24.88;16.02;;;18.40;99.90;;;;;;5051093;28;20059;-63
2022/05/20 00:52:45;;;;;;;27.58;17.55;;;18.40;99.90;;;;;;5051245;28;20032;-64
2022/05/20 00:55:15;;;;;;;25.83;18.08;;;18.40;99.90;;;;;;5051263;28;20036;-64
2022/05/20 00:57:55;;;;;;;27.30;18.02;;;18.40;99.90;;;;;;5051074;28;20025;-64
2022/05/20 01:00:28;;;;;;;26.17;18.58;;;18.30;99.90;;;;;;5050906;28;20025;-64
2022/05/20 01:02:59;;;;;;;26.55;17.50;;;18.30;99.90;;;;;;5049738;28;20032;-64
2022/05/20 01:05:31;;;;;;;29.40;18.50;;;18.30;99.90;;;;;;5051065;28;20422;-63
2022/05/20 01:07:57;;;;;;;27.40;19.13;;;18.30;99.90;;;;;;5051550;28;20029;-64
2022/05/20 01:10:24;;;;;;;28.33;18.33;;;18.30;99.90;;;;;;5051079;28;20025;-64
2022/05/20 01:12:51;;;;;;;33.30;21.50;;;18.30;99.90;;;;;;5051145;28;20501;-63
2022/05/20 01:15:17;;;;;;;26.17;17.63;;;18.20;99.90;;;;;;5051194;28;20032;-64
2022/05/20 01:17:45;;;;;;;25.48;17.60;;;18.20;99.90;;;;;;5050662;28;20017;-63
2022/05/20 01:20:20;;;;;;;23.17;15.77;;;18.10;99.90;;;;;;5050513;28;20028;-63
2022/05/20 01:23:01;;;;;;;20.60;15.65;;;18.00;99.90;;;;;;5051243;28;20033;-63
2022/05/20 01:25:30;;;;;;;21.38;14.90;;;18.00;99.90;;;;;;5050721;28;20029;-64
2022/05/20 01:27:57;;;;;;;25.17;17.23;;;18.00;99.90;;;;;;5050674;28;20039;-63
2022/05/20 01:30:25;;;;;;;24.35;16.45;;;17.90;99.90;;;;;;5050472;28;20055;-63
2022/05/20 01:32:52;;;;;;;22.83;15.98;;;17.90;99.90;;;;;;5050831;28;20393;-64
2022/05/20 01:35:40;;;;;;;24.95;17.52;;;17.90;99.90;;;;;;5050716;28;20029;-64
2022/05/20 01:38:07;;;;;;;22.90;16.40;;;17.80;99.90;;;;;;5049800;28;20100;-63
2022/05/20 01:41:05;;;;;;;26.70;18.05;;;17.80;99.90;;;;;;5050812;28;20400;-64
2022/05/20 01:43:51;;;;;;;25.30;17.13;;;17.70;99.90;;;;;;5050543;28;20056;-63
2022/05/20 01:46:50;;;;;;;24.35;16.85;;;17.70;99.90;;;;;;5052760;28;20104;-64
2022/05/20 01:49:26;;;;;;;24.70;18.25;;;17.60;99.90;;;;;;5054624;28;20043;-63
2022/05/20 01:52:00;;;;;;;24.40;17.65;;;17.60;99.90;;;;;;5053190;28;20108;-63
2022/05/20 01:54:46;;;;;;;26.42;17.15;;;17.60;99.90;;;;;;5054435;28;20029;-63
2022/05/20 01:57:33;;;;;;;25.27;17.90;;;17.50;99.90;;;;;;5042307;28;20102;-63
2022/05/20 02:00:21;;;;;;;26.35;18.10;;;17.50;99.90;;;;;;5054167;28;20029;-64
2022/05/20 02:03:02;;;;;;;24.98;17.73;;;17.40;99.90;;;;;;5054625;28;20028;-64
2022/05/20 02:05:33;;;;;;;27.88;19.27;;;17.40;99.90;;;;;;5054301;28;20037;-64
2022/05/20 02:08:05;;;;;;;25.70;18.80;;;17.30;99.90;;;;;;5053864;28;20477;-64
2022/05/20 02:10:42;;;;;;;26.00;18.40;;;17.30;99.90;;;;;;5053869;28;20035;-64
2022/05/20 02:13:12;;;;;;;28.70;20.13;;;17.20;99.90;;;;;;5054114;28;20040;-63
2022/05/20 02:15:44;;;;;;;28.05;20.75;;;17.20;99.90;;;;;;5053965;28;20497;-63
2022/05/20 02:18:19;;;;;;;29.38;20.13;;;17.10;99.90;;;;;;5054022;28;20037;-64
2022/05/20 02:20:52;;;;;;;27.58;18.70;;;17.10;99.90;;;;;;5053873;28;20090;-64
2022/05/20 02:23:33;;;;;;;28.75;18.55;;;17.10;99.90;;;;;;5054145;28;20067;-64
2022/05/20 02:26:07;;;;;;;29.08;19.85;;;17.20;99.90;;;;;;5053568;28;20064;-63
2022/05/20 02:28:42;;;;;;;26.63;18.55;;;17.10;99.90;;;;;;5053920;28;20037;-64
2022/05/20 02:31:13;;;;;;;24.30;18.05;;;17.10;99.90;;;;;;5053709;28;20025;-64
2022/05/20 02:33:39;;;;;;;25.95;17.40;;;17.10;99.90;;;;;;5053813;28;20021;-63
2022/05/20 02:36:28;;;;;;;26.83;18.95;;;17.00;99.90;;;;;;5053532;28;20024;-63
2022/05/20 02:38:54;;;;;;;;;;;17.10;99.90;;;;;;5053955;28;20493;-63
2022/05/20 02:41:20;;;;;;;28.42;19.30;;;17.10;99.90;;;;;;5053439;28;19919;-63
2022/05/20 02:43:46;;;;;;;33.85;24.75;;;17.10;99.90;;;;;;5053499;28;20036;-63
2022/05/20 02:46:13;;;;;;;29.92;21.90;;;17.10;99.90;;;;;;5053327;28;20421;-64
2022/05/20 02:48:39;;;;;;;28.20;19.67;;;17.00;99.90;;;;;;5053348;28;20033;-63
2022/05/20 02:51:05;;;;;;;28.48;19.63;;;17.00;99.90;;;;;;5053266;28;20033;-64
2022/05/20 02:53:31;;;;;;;28.42;19.40;;;16.90;99.90;;;;;;5053491;28;20027;-63
2022/05/20 02:55:57;;;;;;;32.88;21.55;;;17.00;99.90;;;;;;5052982;28;20502;-64
2022/05/20 03:04:12;;;;;;;33.25;23.80;;;16.90;99.90;;;;;;5053093;28;20043;-64
2022/05/20 03:06:44;;;;;;;38.03;22.08;;;16.90;99.90;;;;;;5053072;28;20029;-64
2022/05/20 03:09:12;;;;;;;31.05;22.80;;;16.80;99.90;;;;;;5052866;28;20033;-64
2022/05/20 03:11:41;;;;;;;35.25;25.17;;;16.90;99.90;;;;;;5053056;28;20536;-63
2022/05/20 03:14:10;;;;;;;34.03;23.17;;;16.80;99.90;;;;;;5053114;28;20068;-64
2022/05/20 03:16:37;;;;;;;;;;;16.80;99.90;;;;;;5053206;28;20078;-63
2022/05/20 03:19:04;;;;;;;34.13;24.00;;;16.80;99.90;;;;;;5051863;28;20042;-64
2022/05/20 03:21:32;;;;;;;36.50;22.52;;;16.80;99.90;;;;;;5052891;28;20029;-63
2022/05/20 03:24:01;;;;;;;34.60;21.70;;;16.70;99.90;;;;;;5052837;28;20033;-64
2022/05/20 03:26:28;;;;;;;32.10;22.17;;;16.80;99.90;;;;;;5052574;28;20075;-64
2022/05/20 03:28:59;;;;;;;36.90;25.33;;;16.90;99.90;;;;;;5052710;28;20067;-64
2022/05/20 03:31:29;;;;;;;33.47;24.48;;;16.80;99.90;;;;;;5052447;28;20036;-64
2022/05/20 03:33:56;;;;;;;30.63;22.23;;;16.80;99.90;;;;;;5052661;28;20032;-64
2022/05/20 03:36:22;;;;;;;38.35;24.85;;;16.80;99.90;;;;;;5052540;28;20020;-64
2022/05/20 03:38:48;;;;;;;33.65;23.63;;;16.70;99.90;;;;;;5052398;28;20120;-64
2022/05/20 03:41:14;;;;;;;35.08;25.17;;;16.70;99.90;;;;;;5052520;28;20418;-64
2022/05/20 03:43:40;;;;;;;39.47;24.88;;;16.60;99.90;;;;;;5052423;28;20067;-64
2022/05/20 03:46:07;;;;;;;39.63;24.85;;;16.60;99.90;;;;;;5052145;28;20053;-64
2022/05/20 03:48:33;;;;;;;39.22;25.08;;;16.60;99.90;;;;;;5052205;28;20123;-64
2022/05/20 03:51:11;;;;;;;34.78;25.02;;;16.60;99.90;;;;;;5052163;28;20032;-64
2022/05/20 03:53:38;;;;;;;34.78;24.33;;;16.50;99.90;;;;;;5052267;28;20381;-64
2022/05/20 03:56:04;;;;;;;35.47;23.35;;;16.50;99.90;;;;;;5052125;28;20047;-63
2022/05/20 03:58:30;;;;;;;34.17;24.13;;;16.50;99.90;;;;;;5052108;28;20125;-63
2022/05/20 04:03:46;;;;;;;37.28;24.88;;;16.50;99.90;;;;;;5052016;28;20033;-63
2022/05/20 04:06:13;;;;;;;35.45;24.73;;;16.50;99.90;;;;;;5051796;28;20056;-63
2022/05/20 04:08:39;;;;;;;32.30;24.35;;;16.50;99.90;;;;;;5050204;28;20036;-64
2022/05/20 04:11:11;;;;;;;35.28;23.88;;;16.50;99.90;;;;;;5050466;28;20036;-64
2022/05/20 04:13:42;;;;;;;37.40;24.10;;;16.50;99.90;;;;;;5051835;28;20025;-64
2022/05/20 04:16:10;;;;;;;37.60;24.63;;;16.60;99.90;;;;;;5051730;28;20021;-63
2022/05/20 04:18:38;;;;;;;38.67;25.60;;;16.60;99.90;;;;;;5051768;28;20024;-64
2022/05/20 04:21:05;;;;;;;36.60;25.13;;;16.60;99.90;;;;;;5051698;28;20059;-64
2022/05/20 04:23:31;;;;;;;34.53;24.42;;;16.60;99.90;;;;;;5051588;28;20041;-64
2022/05/20 04:25:57;;;;;;;35.17;25.02;;;16.60;99.90;;;;;;5051304;28;20112;-63
2022/05/20 04:28:23;;;;;;;34.72;24.85;;;16.60;99.90;;;;;;5051640;28;20040;-64
2022/05/20 04:30:55;;;;;;;37.55;25.42;;;16.60;99.90;;;;;;5051335;28;20032;-63
2022/05/20 04:33:21;;;;;;;38.70;26.42;;;16.70;99.90;;;;;;5051646;28;20080;-63
2022/05/20 04:35:47;;;;;;;36.25;25.20;;;16.70;99.90;;;;;;5051317;28;20059;-64
2022/05/20 04:38:13;;;;;;;37.92;24.45;;;16.70;99.90;;;;;;5051359;28;20053;-64
2022/05/20 04:40:39;;;;;;;35.17;25.00;;;16.80;99.90;;;;;;5051402;28;20090;-64
2022/05/20 04:48:34;;;;;;;41.40;26.80;;;16.80;99.90;;;;;;5051361;28;20791;-64
2022/05/20 04:51:00;;;;;;;39.17;27.50;;;16.90;99.90;;;;;;5051109;28;20039;-64
2022/05/20 04:56:11;;;;;;;40.22;28.05;;;16.90;99.90;;;;;;5050930;28;20032;-64
2022/05/20 04:58:38;;;;;;;39.83;26.35;;;17.00;99.90;;;;;;5050715;28;20501;-63
2022/05/20 05:01:04;;;;;;;37.15;26.52;;;17.00;99.90;;;;;;5050968;28;20432;-63
2022/05/20 05:03:30;;;;;;;39.15;27.25;;;17.10;99.90;;;;;;5051170;28;20033;-64
2022/05/20 05:05:56;;;;;;;37.85;25.95;;;17.10;99.90;;;;;;5050804;28;20497;-64
2022/05/20 05:08:22;;;;;;;37.45;25.20;;;17.10;99.90;;;;;;5050943;28;20056;-64
2022/05/20 05:10:49;;;;;;;38.38;26.08;;;17.20;99.90;;;;;;5050711;28;20059;-64
2022/05/20 05:13:15;;;;;;;37.22;26.38;;;17.30;99.90;;;;;;5050828;28;20020;-64
2022/05/20 05:15:44;;;;;;;35.13;23.42;;;17.30;99.90;;;;;;5050701;28;20033;-64
2022/05/20 05:18:14;;;;;;;35.30;25.08;;;17.40;99.90;;;;;;5050877;28;20032;-63
2022/05/20 05:20:50;;;;;;;35.13;24.70;;;17.50;99.90;;;;;;5052101;28;20381;-63
2022/05/20 05:23:17;;;;;;;35.92;25.98;;;17.50;99.90;;;;;;5055473;28;20029;-64
2022/05/20 05:25:44;;;;;;;37.70;25.92;;;17.60;99.90;;;;;;5053500;28;20037;-64
2022/05/20 05:28:10;;;;;;;38.30;27.50;;;17.60;99.90;;;;;;5054908;28;20512;-64
2022/05/20 05:30:36;;;;;;;39.65;27.75;;;17.60;99.90;;;;;;5054879;28;20116;-64
2022/05/20 05:33:03;;;;;;;42.40;29.23;;;17.70;99.90;;;;;;5055128;28;20029;-64
2022/05/20 05:35:34;;;;;;;42.38;28.65;;;17.70;99.90;;;;;;5055045;28;20473;-65
2022/05/20 05:38:00;;;;;;;45.30;30.15;;;17.70;99.90;;;;;;5054735;28;20064;-64
2022/05/20 05:40:29;;;;;;;45.08;30.50;;;17.70;99.90;;;;;;5053446;28;20025;-64
2022/05/20 05:42:56;;;;;;;42.33;28.55;;;17.80;99.90;;;;;;5054698;28;20112;-64
2022/05/20 05:45:24;;;;;;;40.13;28.90;;;17.80;99.90;;;;;;5054676;28;20082;-64
2022/05/20 05:48:05;;;;;;;43.30;29.98;;;17.80;99.90;;;;;;5054445;28;20024;-64
2022/05/20 05:50:34;;;;;;;45.35;31.60;;;17.90;99.90;;;;;;5054834;28;20449;-64
2022/05/20 05:53:06;;;;;;;45.03;30.65;;;17.90;99.90;;;;;;5053296;28;20052;-64
2022/05/20 05:55:32;;;;;;;43.50;29.73;;;17.90;99.90;;;;;;5054336;28;20359;-64
2022/05/20 05:57:58;;;;;;;45.65;29.35;;;17.90;99.90;;;;;;5054228;28;20032;-64
2022/05/20 06:00:24;;;;;;;42.03;28.77;;;17.90;99.90;;;;;;5054135;28;20017;-64
2022/05/20 06:02:50;;;;;;;41.00;29.35;;;18.00;99.90;;;;;;5054547;28;20033;-64
2022/05/20 06:05:16;;;;;;;41.03;27.10;;;18.00;99.90;;;;;;5054274;28;20025;-64
2022/05/20 06:07:42;;;;;;;38.60;25.17;;;18.10;99.90;;;;;;5054016;28;20025;-64
2022/05/20 06:10:09;;;;;;;35.63;24.70;;;18.10;99.90;;;;;;5054237;28;20031;-64
2022/05/20 06:12:35;;;;;;;42.03;27.83;;;18.20;99.90;;;;;;5054007;28;20025;-64
2022/05/20 06:15:06;;;;;;;40.10;28.13;;;18.20;99.90;;;;;;5053996;28;20025;-64
2022/05/20 06:17:33;;;;;;;43.55;29.75;;;18.20;99.90;;;;;;5053895;28;20051;-63
2022/05/20 06:19:59;;;;;;;42.83;28.85;;;18.20;99.90;;;;;;5053487;28;20040;-63
2022/05/20 06:22:26;;;;;;;41.13;28.08;;;18.20;99.90;;;;;;5053822;28;20440;-64
2022/05/20 06:24:53;;;;;;;41.25;27.92;;;18.20;99.90;;;;;;5054007;28;20478;-64
2022/05/20 06:27:19;;;;;;;43.50;27.52;;;18.30;99.90;;;;;;5067978;22;20041;-67
2022/05/20 06:29:48;;;;;;;41.20;27.13;;;18.30;99.90;;;;;;5053494;28;20017;-67
2022/05/20 06:32:15;;;;;;;42.90;25.73;;;18.30;99.90;;;;;;5053526;28;20043;-67
2022/05/20 06:40:21;;;;;;;36.33;24.55;;;18.40;99.90;;;;;;5053376;28;20493;-67
2022/05/20 06:42:47;;;;;;;34.92;22.90;;;18.50;99.90;;;;;;5053485;28;20056;-68
2022/05/20 06:45:14;;;;;;;34.85;24.30;;;18.50;99.90;;;;;;5053306;28;20025;-68
2022/05/20 06:47:41;;;;;;;35.80;24.08;;;18.50;99.90;;;;;;5053066;28;20473;-68
2022/05/20 06:50:09;;;;;;;36.45;22.88;;;18.50;99.90;;;;;;5052977;28;20029;-67
2022/05/20 06:52:34;;;;;;;29.40;20.02;;;18.60;99.90;;;;;;5053319;28;20033;-68
2022/05/20 06:55:01;;;;;;;30.38;19.42;;;18.60;99.90;;;;;;5053506;28;20112;-67
2022/05/20 06:57:27;;;;;;;24.08;15.85;;;18.60;99.90;;;;;;5052923;28;20040;-68
2022/05/20 06:59:53;;;;;;;24.10;16.17;;;18.70;99.90;;;;;;5052957;28;20095;-68
2022/05/20 07:02:20;;;;;;;20.98;13.32;;;18.70;99.90;;;;;;5052911;28;20477;-68
2022/05/20 07:04:46;;;;;;;22.58;13.98;;;18.70;99.90;;;;;;5052913;28;20032;-68
2022/05/20 07:07:12;;;;;;;21.08;12.65;;;18.80;99.90;;;;;;5052737;28;20078;-68
2022/05/20 07:09:37;;;;;;;16.77;10.82;;;18.80;99.90;;;;;;5052667;28;20083;-68
2022/05/20 07:12:04;;;;;;;19.58;13.10;;;18.80;99.90;;;;;;5052821;28;20029;-68
2022/05/20 07:14:30;;;;;;;19.13;10.73;;;18.90;99.90;;;;;;5052648;28;20029;-67
2022/05/20 07:16:56;;;;;;;17.58;11.07;;;18.90;99.90;;;;;;5052558;28;20029;-67
2022/05/20 07:19:22;;;;;;;19.35;11.20;;;18.90;99.90;;;;;;5052701;28;20071;-68
2022/05/20 07:21:48;;;;;;;17.77;10.23;;;19.00;99.90;;;;;;5052808;28;20081;-67
2022/05/20 07:24:14;;;;;;;16.70;10.75;;;19.00;99.90;;;;;;5052604;28;20025;-67
2022/05/20 07:26:40;;;;;;;16.80;10.10;;;19.00;99.90;;;;;;5052271;28;20029;-68
2022/05/20 07:29:08;;;;;;;19.90;12.25;;;19.10;99.90;;;;;;5052301;28;20128;-67
2022/05/20 07:31:35;;;;;;;18.70;12.23;;;19.10;99.90;;;;;;5052396;28;20076;-67
2022/05/20 07:34:01;;;;;;;19.20;11.02;;;19.10;99.90;;;;;;5052453;28;20107;-68
2022/05/20 07:36:27;;;;;;;17.27;9.98;;;19.10;99.90;;;;;;5034280;28;20104;-67
2022/05/20 07:38:53;;;;;;;15.00;9.63;;;19.20;99.90;;;;;;5052332;28;20021;-67
2022/05/20 07:41:22;;;;;;;18.83;11.95;;;19.20;99.90;;;;;;5052253;28;20025;-68
2022/05/20 07:43:48;;;;;;;21.27;11.45;;;19.20;99.90;;;;;;5051705;28;20039;-68
2022/05/20 07:46:14;;;;;;;14.32;8.85;;;19.20;99.90;;;;;;5051947;28;20031;-67
2022/05/20 07:48:40;;;;;;;15.93;9.88;;;19.20;99.90;;;;;;5051874;28;20124;-68
2022/05/20 07:51:10;;;;;;;18.00;11.68;;;19.30;99.90;;;;;;5052021;28;20032;-68
2022/05/20 07:53:42;;;;;;;18.95;10.45;;;19.30;99.90;;;;;;5052033;28;20060;-68
2022/05/20 07:56:13;;;;;;;16.23;9.15;;;19.30;99.90;;;;;;5051800;28;20033;-67
2022/05/20 07:58:47;;;;;;;18.15;10.70;;;19.40;99.90;;;;;;5051790;28;20029;-68
2022/05/20 08:01:15;;;;;;;19.77;10.38;;;19.40;99.90;;;;;;5051848;28;20032;-67
2022/05/20 08:06:26;;;;;;;17.30;9.65;;;19.50;99.90;;;;;;5051562;28;20041;-68
2022/05/20 08:08:53;;;;;;;14.75;8.93;;;19.50;99.90;;;;;;5051871;28;20085;-68
2022/05/20 08:11:19;;;;;;;18.35;11.25;;;19.60;99.90;;;;;;5051562;28;20543;-67
2022/05/20 08:13:45;;;;;;;15.55;8.98;;;19.70;99.90;;;;;;5051728;28;20041;-68
2022/05/20 08:16:10;;;;;;;18.05;8.85;;;19.80;99.90;;;;;;5051646;28;20462;-68
2022/05/20 08:18:36;;;;;;;15.65;11.00;;;19.80;99.90;;;;;;5051390;28;20513;-68
2022/05/20 08:21:02;;;;;;;15.55;9.23;;;19.80;99.90;;;;;;5051498;28;20439;-67
2022/05/20 08:23:28;;;;;;;18.42;10.32;;;19.90;99.90;;;;;;5051763;28;20492;-68
2022/05/20 08:25:54;;;;;;;16.50;9.00;;;19.90;99.90;;;;;;5051392;28;20044;-68
2022/05/20 08:28:20;;;;;;;20.13;10.30;;;20.00;99.90;;;;;;5051518;28;20029;-68
2022/05/20 08:30:46;;;;;;;17.38;9.18;;;20.00;99.90;;;;;;5051121;28;20443;-67
2022/05/20 08:33:12;;;;;;;15.60;7.93;;;20.10;99.90;;;;;;5051361;28;20029;-68
2022/05/20 08:35:38;;;;;;;15.57;8.98;;;20.10;99.90;;;;;;5051358;28;20032;-67
2022/05/20 08:38:04;;;;;;;16.15;8.70;;;20.10;99.90;;;;;;5051731;28;20078;-68
2022/05/20 08:40:43;;;;;;;15.45;9.15;;;20.20;99.90;;;;;;5051436;28;20025;-67
2022/05/20 08:43:11;;;;;;;15.32;8.45;;;20.20;99.90;;;;;;5051913;28;20044;-68
2022/05/20 08:45:37;;;;;;;17.00;8.90;;;20.20;99.90;;;;;;5051401;28;20025;-68
2022/05/20 08:48:05;;;;;;;19.95;9.73;;;20.30;99.90;;;;;;5051468;28;20112;-66
2022/05/20 08:50:37;;;;;;;16.85;8.30;;;20.30;99.90;;;;;;5051414;28;20067;-66
2022/05/20 08:53:06;;;;;;;16.33;9.15;;;20.30;99.90;;;;;;5051312;28;20021;-66
2022/05/20 08:55:32;;;;;;;17.75;10.10;;;20.40;99.90;;;;;;5050148;28;20059;-65
2022/05/20 08:58:01;;;;;;;19.60;10.98;;;20.40;99.90;;;;;;5050755;28;20025;-66
2022/05/20 09:00:29;;;;;;;20.55;10.93;;;20.50;99.90;;;;;;5050661;28;20082;-66
2022/05/20 09:02:56;;;;;;;17.35;9.52;;;20.50;99.90;;;;;;5050880;28;20389;-66
2022/05/20 09:05:33;;;;;;;17.50;10.43;;;20.50;99.90;;;;;;5051020;28;20501;-66
2022/05/20 09:08:03;;;;;;;19.73;10.75;;;20.50;99.90;;;;;;5050653;28;20111;-67
2022/05/20 09:10:41;;;;;;;23.83;12.60;;;20.50;99.90;;;;;;5050502;28;20033;-67
2022/05/20 09:13:22;;;;;;;18.52;11.18;;;20.50;99.90;;;;;;5050849;28;20164;-66
2022/05/20 09:16:00;;;;;;;19.42;11.40;;;20.60;99.90;;;;;;5050647;28;20018;-67
2022/05/20 09:18:30;;;;;;;22.42;13.00;;;20.60;99.90;;;;;;5050783;28;20040;-67
2022/05/20 09:20:56;;;;;;;23.15;13.05;;;20.70;99.90;;;;;;5050585;28;20036;-66
2022/05/20 09:23:24;;;;;;;21.55;12.60;;;20.70;99.90;;;;;;5050640;28;20029;-67
2022/05/20 09:26:04;;;;;;;20.08;12.88;;;20.80;99.90;;;;;;5050413;28;20040;-66
2022/05/20 09:28:39;;;;;;;24.10;12.95;;;20.80;99.90;;;;;;5050602;28;20390;-67
2022/05/20 09:31:16;;;;;;;22.73;12.85;;;20.80;99.90;;;;;;5032467;28;20481;-67
2022/05/20 09:34:08;;;;;;;19.63;12.15;;;20.80;99.90;;;;;;5051042;28;20060;-66
2022/05/20 09:36:55;;;;;;;20.35;12.48;;;20.90;99.90;;;;;;5036136;28;20072;-66
2022/05/20 09:39:36;;;;;;;22.17;12.20;;;20.90;99.90;;;;;;5050604;28;20025;-66
2022/05/20 09:42:15;;;;;;;21.10;12.27;;;20.90;99.90;;;;;;5032669;28;20127;-66
2022/05/20 09:44:46;;;;;;;26.77;14.85;;;21.00;99.90;;;;;;5050411;28;20079;-66
2022/05/20 09:47:26;;;;;;;26.10;13.82;;;21.00;99.90;;;;;;5032568;28;20037;-66
2022/05/20 09:50:21;;;;;;;31.17;16.80;;;21.10;99.90;;;;;;5032599;28;20042;-66
2022/05/20 09:52:57;;;;;;;30.15;18.40;;;21.10;99.90;;;;;;5049963;28;20079;-66
2022/05/20 09:55:43;;;;;;;26.38;16.00;;;21.20;99.90;;;;;;5049391;28;20025;-66
2022/05/20 09:58:30;;;;;;;26.98;14.93;;;21.20;99.90;;;;;;5050575;28;20075;-66
2022/05/20 10:01:05;;;;;;;22.23;13.23;;;21.20;99.90;;;;;;5050219;28;20504;-66
2022/05/20 10:03:34;;;;;;;24.38;14.48;;;21.20;99.90;;;;;;5050347;28;20029;-66
2022/05/20 10:06:27;;;;;;;30.00;18.73;;;21.20;99.90;;;;;;5050439;28;20436;-66
2022/05/20 10:09:07;;;;;;;25.45;15.38;;;21.20;99.90;;;;;;5054217;28;20405;-66
2022/05/20 10:11:42;;;;;;;27.73;14.77;;;21.20;99.90;;;;;;5053883;28;20033;-66
2022/05/20 10:14:14;;;;;;;45.25;19.63;;;21.30;99.90;;;;;;5054167;28;20108;-66
2022/05/20 10:16:52;;;;;;;36.35;20.00;;;21.30;99.90;;;;;;5053846;28;20033;-66
2022/05/20 10:19:26;;;;;;;29.40;18.20;;;21.30;99.90;;;;;;5053871;28;20136;-67
2022/05/20 10:22:17;;;;;;;26.83;16.27;;;21.30;99.90;;;;;;5053813;28;20033;-66
2022/05/20 10:25:05;;;;;;;28.63;17.67;;;21.40;99.90;;;;;;5036094;28;20036;-66
2022/05/20 10:28:04;;;;;;;28.38;17.27;;;21.50;99.90;;;;;;5053495;28;20508;-66
2022/05/20 10:33:31;;;;;;;26.67;17.60;;;21.70;99.90;;;;;;5053728;28;20029;-66
2022/05/20 10:36:07;;;;;;;29.80;17.42;;;21.70;99.90;;;;;;5053371;28;20037;-66
2022/05/20 10:38:35;;;;;;;30.63;19.15;;;21.80;99.90;;;;;;5053347;28;20472;-65
2022/05/20 10:41:05;;;;;;;;;;;21.70;99.90;;;;;;5053824;28;20389;-65
2022/05/20 10:49:50;;;;;;;27.15;17.10;;;21.60;99.90;;;;;;5053168;28;20040;-66
2022/05/20 10:52:24;;;;;;;25.25;17.10;;;21.60;99.90;;;;;;5053126;28;20032;-67
2022/05/20 10:55:12;;;;;;;28.48;16.00;;;21.60;99.90;;;;;;5053215;28;20590;-66
2022/05/20 10:57:43;;;;;;;20.73;14.43;;;21.60;99.90;;;;;;5053352;28;20052;-67
2022/05/20 11:00:12;;;;;;;24.05;16.02;;;21.60;99.90;;;;;;5053170;28;20105;-67
2022/05/20 11:03:07;;;;;;;27.30;14.35;;;21.60;99.90;;;;;;5053451;28;20052;-66
2022/05/20 11:05:53;;;;;;;29.15;17.67;;;21.60;99.90;;;;;;5052948;28;20037;-67
2022/05/20 11:08:46;;;;;;;23.00;15.05;;;21.70;99.90;;;;;;5053057;28;20029;-66
2022/05/20 11:11:19;;;;;;;25.13;14.75;;;21.70;99.90;;;;;;5052958;28;20037;-66
2022/05/20 11:14:06;;;;;;;29.45;17.63;;;21.70;99.90;;;;;;5052858;28;20085;-66
2022/05/20 11:17:03;;;;;;;24.73;14.35;;;21.80;99.90;;;;;;5052751;28;20039;-67
2022/05/20 11:19:47;;;;;;;21.92;13.30;;;21.90;99.90;;;;;;5051664;28;20036;-66
2022/05/20 11:22:28;;;;;;;19.58;12.98;;;21.90;99.90;;;;;;5034825;28;20078;-66
2022/05/20 11:25:24;;;;;;;19.55;13.02;;;21.90;99.90;;;;;;5034894;28;20063;-66
2022/05/20 11:28:08;;;;;;;18.83;13.02;;;21.90;99.90;;;;;;5052355;28;20410;-67
2022/05/20 11:31:08;;;;;;;20.73;13.48;;;22.00;99.90;;;;;;5051995;28;20548;-66
2022/05/20 11:33:54;;;;;;;21.08;14.15;;;22.00;99.90;;;;;;5052543;28;20075;-66
2022/05/20 11:36:49;;;;;;;17.77;12.40;;;22.10;99.90;;;;;;5052234;28;20489;-66
2022/05/20 11:39:30;;;;;;;27.48;16.55;;;22.10;99.90;;;;;;5052095;28;20036;-66
2022/05/20 11:42:15;;;;;;;20.67;13.77;;;22.30;99.90;;;;;;5052207;28;20032;-66
2022/05/20 11:45:10;;;;;;;21.10;13.38;;;22.40;99.90;;;;;;5052066;28;20541;-66
2022/05/20 11:47:52;;;;;;;20.40;12.57;;;22.40;99.90;;;;;;5052037;28;20490;-67
2022/05/20 11:50:31;;;;;;;24.23;14.07;;;22.50;99.90;;;;;;5052132;28;20037;-67
2022/05/20 11:53:24;;;;;;;20.42;12.85;;;22.60;99.90;;;;;;5051924;28;20039;-66
2022/05/20 11:55:52;;;;;;;17.25;11.63;;;22.70;99.90;;;;;;5052169;28;20074;-66
2022/05/20 11:58:35;;;;;;;16.58;12.32;;;22.70;99.90;;;;;;5052086;28;20021;-67
2022/05/20 12:01:02;;;;;;;18.50;13.20;;;22.70;99.90;;;;;;5051988;28;20284;-67
2022/05/20 12:04:06;;;;;;;23.17;13.45;;;22.70;99.90;;;;;;5052041;28;20028;-67
2022/05/20 12:06:22;;;;;;;21.73;13.50;;;22.70;99.90;;;;;;5051484;28;20037;-66
2022/05/20 12:08:51;;;;;;;17.75;12.68;;;22.80;99.90;;;;;;5051921;28;20082;-67
2022/05/20 12:11:32;;;;;;;15.82;11.88;;;22.90;99.90;;;;;;5051572;28;20296;-66
2022/05/20 12:13:57;;;;;;;16.77;12.02;;;22.90;99.90;;;;;;5051620;28;20412;-67
2022/05/20 12:16:24;;;;;;;17.27;11.65;;;22.90;99.90;;;;;;5051482;28;20025;-67
2022/05/20 12:24:32;;;;;;;15.90;12.77;;;22.80;99.90;;;;;;5051360;28;20025;-67
2022/05/20 12:26:58;;;;;;;13.70;10.18;;;22.70;99.90;;;;;;5065765;23;20123;-65
2022/05/20 12:29:37;;;;;;;12.70;9.90;;;22.70;99.90;;;;;;5050515;28;20163;-65
2022/05/20 12:32:15;;;;;;;;;;;22.60;99.90;;;;;;5051967;28;20021;-65
2022/05/20 12:34:42;;;;;;;14.63;9.32;;;22.50;99.90;;;;;;5051367;28;19909;-65
2022/05/20 12:37:40;;;;;;;12.70;8.50;;;22.40;99.90;;;;;;5050955;28;20033;-65
2022/05/20 12:40:18;;;;;;;11.77;8.65;;;22.40;99.90;;;;;;5051061;28;20041;-65
2022/05/20 12:43:02;;;;;;;12.48;9.07;;;22.30;99.90;;;;;;5033491;28;20090;-65
2022/05/20 12:45:39;;;;;;;16.58;10.27;;;22.30;99.90;;;;;;5051260;28;20039;-65
2022/05/20 12:48:05;;;;;;;16.23;10.43;;;22.10;99.90;;;;;;5050913;28;20080;-65
2022/05/20 12:50:31;;;;;;;14.50;11.02;;;22.00;99.90;;;;;;5050985;28;20358;-66
2022/05/20 12:53:05;;;;;;;14.98;10.70;;;21.90;99.90;;;;;;5050992;28;20137;-65
2022/05/20 12:55:45;;;;;;;12.48;9.90;;;21.80;99.90;;;;;;5051068;28;20070;-66
2022/05/20 12:58:15;;;;;;;13.45;10.65;;;21.80;99.90;;;;;;5050964;28;20075;-66
2022/05/20 13:00:52;;;;;;;13.27;10.90;;;21.70;99.90;;;;;;5050743;28;20392;-66
2022/05/20 13:03:22;;;;;;;16.73;12.43;;;21.70;99.90;;;;;;5051511;28;20063;-66
2022/05/20 13:05:51;;;;;;;15.98;10.68;;;21.60;99.90;;;;;;5050841;28;20039;-65
2022/05/20 13:08:27;;;;;;;14.77;9.80;;;21.50;99.90;;;;;;5051004;28;20104;-66
2022/05/20 13:10:53;;;;;;;10.10;8.55;;;21.50;99.90;;;;;;5050657;28;20596;-66
2022/05/20 13:13:30;;;;;;;10.85;7.85;;;21.50;99.90;;;;;;5050772;28;20033;-65
2022/05/20 13:16:00;;;;;;;10.82;7.90;;;21.50;99.90;;;;;;5050829;28;20033;-66
2022/05/20 13:18:32;;;;;;;10.43;7.65;;;21.40;99.90;;;;;;5033184;28;20060;-65
2022/05/20 13:21:05;;;;;;;11.85;8.52;;;21.40;99.90;;;;;;5050797;28;20078;-66
2022/05/20 13:23:37;;;;;;;12.70;9.32;;;21.40;99.90;;;;;;5050804;28;20025;-66
2022/05/20 13:26:05;;;;;;;14.15;9.43;;;21.30;99.90;;;;;;5050644;28;20129;-66
2022/05/20 13:28:36;;;;;;;10.35;8.82;;;21.30;99.90;;;;;;5050527;28;20432;-66
2022/05/20 13:31:11;;;;;;;10.27;8.48;;;21.30;99.90;;;;;;5050527;28;20564;-66
2022/05/20 13:33:41;;;;;;;10.07;8.75;;;21.20;99.90;;;;;;5050755;28;20024;-66
2022/05/20 13:36:12;;;;;;;12.95;9.90;;;21.20;99.90;;;;;;5032404;28;20025;-66